sensor_id;sensor_type;location;lat;lon;timestamp;temperature;humidity
4245;DHT22;2136;48.502;9.194;2022-08-01T00:02:06;22.70;59.90
4245;DHT22;2136;48.502;9.194;2022-08-01T00:04:32;22.70;59.80
4245;DHT22;2136;48.502;9.194;2022-08-01T00:06:59;22.70;59.90
4245;DHT22;2136;48.502;9.194;2022-08-01T00:09:26;22.60;59.60
4245;DHT22;2136;48.502;9.194;2022-08-01T00:11:53;22.60;59.60
4245;DHT22;2136;48.502;9.194;2022-08-01T00:14:21;22.60;59.70
4245;DHT22;2136;48.502;9.194;2022-08-01T00:16:48;22.60;59.90
4245;DHT22;2136;48.502;9.194;2022-08-01T00:19:15;22.50;59.70
4245;DHT22;2136;48.502;9.194;2022-08-01T00:21:42;22.50;59.90
4245;DHT22;2136;48.502;9.194;2022-08-01T00:24:09;22.40;59.80
4245;DHT22;2136;48.502;9.194;2022-08-01T00:26:36;22.40;59.50
4245;DHT22;2136;48.502;9.194;2022-08-01T00:29:02;22.40;60.30
4245;DHT22;2136;48.502;9.194;2022-08-01T00:31:31;22.30;59.80
4245;DHT22;2136;48.502;9.194;2022-08-01T00:33:57;22.30;59.50
4245;DHT22;2136;48.502;9.194;2022-08-01T00:36:24;22.20;59.80
4245;DHT22;2136;48.502;9.194;2022-08-01T00:38:51;22.20;60.50
4245;DHT22;2136;48.502;9.194;2022-08-01T00:41:18;22.10;61.10
4245;DHT22;2136;48.502;9.194;2022-08-01T00:43:45;22.10;61.90
4245;DHT22;2136;48.502;9.194;2022-08-01T00:46:12;22.10;62.50
4245;DHT22;2136;48.502;9.194;2022-08-01T00:48:40;22.00;63.00
4245;DHT22;2136;48.502;9.194;2022-08-01T00:51:07;22.00;63.10
4245;DHT22;2136;48.502;9.194;2022-08-01T00:53:34;21.90;63.00
4245;DHT22;2136;48.502;9.194;2022-08-01T00:56:02;21.90;63.30
4245;DHT22;2136;48.502;9.194;2022-08-01T00:58:29;21.80;63.20
4245;DHT22;2136;48.502;9.194;2022-08-01T01:00:57;21.80;62.20
4245;DHT22;2136;48.502;9.194;2022-08-01T01:03:24;21.80;61.90
4245;DHT22;2136;48.502;9.194;2022-08-01T01:06:00;21.80;62.10
4245;DHT22;2136;48.502;9.194;2022-08-01T01:08:34;21.70;62.40
4245;DHT22;2136;48.502;9.194;2022-08-01T01:11:08;21.70;62.80
4245;DHT22;2136;48.502;9.194;2022-08-01T01:13:44;21.60;62.80
4245;DHT22;2136;48.502;9.194;2022-08-01T01:16:14;21.60;62.80
4245;DHT22;2136;48.502;9.194;2022-08-01T01:18:45;21.50;63.00
4245;DHT22;2136;48.502;9.194;2022-08-01T01:21:32;21.50;63.20
4245;DHT22;2136;48.502;9.194;2022-08-01T01:24:13;21.50;63.60
4245;DHT22;2136;48.502;9.194;2022-08-01T01:26:51;21.40;63.50
4245;DHT22;2136;48.502;9.194;2022-08-01T01:29:25;21.40;63.60
4245;DHT22;2136;48.502;9.194;2022-08-01T01:31:58;21.30;63.60
4245;DHT22;2136;48.502;9.194;2022-08-01T01:34:29;21.30;64.00
4245;DHT22;2136;48.502;9.194;2022-08-01T01:36:59;21.20;63.80
4245;DHT22;2136;48.502;9.194;2022-08-01T01:39:29;21.20;64.10
4245;DHT22;2136;48.502;9.194;2022-08-01T01:41:58;21.20;64.20
4245;DHT22;2136;48.502;9.194;2022-08-01T01:44:27;21.10;64.10
4245;DHT22;2136;48.502;9.194;2022-08-01T01:46:56;21.10;64.30
4245;DHT22;2136;48.502;9.194;2022-08-01T01:49:26;21.10;64.10
4245;DHT22;2136;48.502;9.194;2022-08-01T01:51:55;21.00;63.70
4245;DHT22;2136;48.502;9.194;2022-08-01T01:54:24;21.00;63.80
4245;DHT22;2136;48.502;9.194;2022-08-01T01:56:55;21.00;64.10
4245;DHT22;2136;48.502;9.194;2022-08-01T01:59:28;21.00;64.80
4245;DHT22;2136;48.502;9.194;2022-08-01T02:01:58;21.00;65.90
4245;DHT22;2136;48.502;9.194;2022-08-01T02:04:27;20.90;65.60
4245;DHT22;2136;48.502;9.194;2022-08-01T02:06:55;20.90;65.70
4245;DHT22;2136;48.502;9.194;2022-08-01T02:09:23;20.90;66.10
4245;DHT22;2136;48.502;9.194;2022-08-01T02:11:53;20.90;66.20
4245;DHT22;2136;48.502;9.194;2022-08-01T02:14:20;20.90;66.60
4245;DHT22;2136;48.502;9.194;2022-08-01T02:16:50;20.80;66.70
4245;DHT22;2136;48.502;9.194;2022-08-01T02:19:18;20.80;66.80
4245;DHT22;2136;48.502;9.194;2022-08-01T02:21:49;20.80;67.70
4245;DHT22;2136;48.502;9.194;2022-08-01T02:24:24;20.80;66.60
4245;DHT22;2136;48.502;9.194;2022-08-01T02:26:58;20.80;67.10
4245;DHT22;2136;48.502;9.194;2022-08-01T02:29:29;20.80;67.60
4245;DHT22;2136;48.502;9.194;2022-08-01T02:32:01;20.70;67.90
4245;DHT22;2136;48.502;9.194;2022-08-01T02:34:29;20.70;68.20
4245;DHT22;2136;48.502;9.194;2022-08-01T02:36:59;20.60;68.20
4245;DHT22;2136;48.502;9.194;2022-08-01T02:39:28;20.70;68.20
4245;DHT22;2136;48.502;9.194;2022-08-01T02:42:02;20.60;68.40
4245;DHT22;2136;48.502;9.194;2022-08-01T02:44:32;20.60;68.50
4245;DHT22;2136;48.502;9.194;2022-08-01T02:47:03;20.50;68.70
4245;DHT22;2136;48.502;9.194;2022-08-01T02:49:33;20.50;69.10
4245;DHT22;2136;48.502;9.194;2022-08-01T02:52:01;20.50;69.10
4245;DHT22;2136;48.502;9.194;2022-08-01T02:54:31;20.50;69.20
4245;DHT22;2136;48.502;9.194;2022-08-01T02:57:00;20.50;68.90
4245;DHT22;2136;48.502;9.194;2022-08-01T02:59:29;20.50;69.30
4245;DHT22;2136;48.502;9.194;2022-08-01T03:01:59;20.50;69.30
4245;DHT22;2136;48.502;9.194;2022-08-01T03:04:28;20.50;69.60
4245;DHT22;2136;48.502;9.194;2022-08-01T03:06:56;20.50;69.50
4245;DHT22;2136;48.502;9.194;2022-08-01T03:09:25;20.40;69.20
4245;DHT22;2136;48.502;9.194;2022-08-01T03:11:56;20.40;69.60
4245;DHT22;2136;48.502;9.194;2022-08-01T03:14:24;20.40;69.80
4245;DHT22;2136;48.502;9.194;2022-08-01T03:16:53;20.40;69.70
4245;DHT22;2136;48.502;9.194;2022-08-01T03:19:23;20.30;69.60
4245;DHT22;2136;48.502;9.194;2022-08-01T03:21:53;20.30;69.30
4245;DHT22;2136;48.502;9.194;2022-08-01T03:24:21;20.30;69.40
4245;DHT22;2136;48.502;9.194;2022-08-01T03:26:51;20.30;69.60
4245;DHT22;2136;48.502;9.194;2022-08-01T03:29:22;20.20;69.70
4245;DHT22;2136;48.502;9.194;2022-08-01T03:31:51;20.20;70.50
4245;DHT22;2136;48.502;9.194;2022-08-01T03:34:19;20.20;70.40
4245;DHT22;2136;48.502;9.194;2022-08-01T03:36:48;20.20;70.30
4245;DHT22;2136;48.502;9.194;2022-08-01T03:39:18;20.20;70.50
4245;DHT22;2136;48.502;9.194;2022-08-01T03:41:51;20.10;70.20
4245;DHT22;2136;48.502;9.194;2022-08-01T03:44:27;20.10;70.90
4245;DHT22;2136;48.502;9.194;2022-08-01T03:46:58;20.10;71.10
4245;DHT22;2136;48.502;9.194;2022-08-01T03:49:30;20.00;70.70
4245;DHT22;2136;48.502;9.194;2022-08-01T03:51:58;20.00;70.80
4245;DHT22;2136;48.502;9.194;2022-08-01T03:54:31;20.00;71.40
4245;DHT22;2136;48.502;9.194;2022-08-01T03:57:00;19.90;71.70
4245;DHT22;2136;48.502;9.194;2022-08-01T03:59:27;19.90;72.30
4245;DHT22;2136;48.502;9.194;2022-08-01T04:01:55;19.90;72.60
4245;DHT22;2136;48.502;9.194;2022-08-01T04:04:23;19.90;72.60
4245;DHT22;2136;48.502;9.194;2022-08-01T04:06:50;19.90;73.00
4245;DHT22;2136;48.502;9.194;2022-08-01T04:09:19;19.80;73.00
4245;DHT22;2136;48.502;9.194;2022-08-01T04:11:48;19.80;73.50
4245;DHT22;2136;48.502;9.194;2022-08-01T04:14:15;19.80;73.70
4245;DHT22;2136;48.502;9.194;2022-08-01T04:16:42;19.90;73.70
4245;DHT22;2136;48.502;9.194;2022-08-01T04:19:09;19.80;73.70
4245;DHT22;2136;48.502;9.194;2022-08-01T04:21:36;19.80;73.70
4245;DHT22;2136;48.502;9.194;2022-08-01T04:24:09;19.80;73.50
4245;DHT22;2136;48.502;9.194;2022-08-01T04:26:39;19.80;73.70
4245;DHT22;2136;48.502;9.194;2022-08-01T04:29:08;19.80;73.60
4245;DHT22;2136;48.502;9.194;2022-08-01T04:31:37;19.80;73.50
4245;DHT22;2136;48.502;9.194;2022-08-01T04:34:06;19.80;73.50
4245;DHT22;2136;48.502;9.194;2022-08-01T04:36:35;19.80;73.80
4245;DHT22;2136;48.502;9.194;2022-08-01T04:39:04;19.80;74.10
4245;DHT22;2136;48.502;9.194;2022-08-01T04:41:32;19.80;73.50
4245;DHT22;2136;48.502;9.194;2022-08-01T04:44:00;19.80;73.60
4245;DHT22;2136;48.502;9.194;2022-08-01T04:46:29;19.80;74.20
4245;DHT22;2136;48.502;9.194;2022-08-01T04:48:58;19.80;74.40
4245;DHT22;2136;48.502;9.194;2022-08-01T04:51:25;19.80;75.10
4245;DHT22;2136;48.502;9.194;2022-08-01T04:53:52;19.80;73.80
4245;DHT22;2136;48.502;9.194;2022-08-01T04:56:20;19.80;73.90
4245;DHT22;2136;48.502;9.194;2022-08-01T04:58:47;19.80;74.10
4245;DHT22;2136;48.502;9.194;2022-08-01T05:01:35;19.80;74.80
4245;DHT22;2136;48.502;9.194;2022-08-01T05:04:02;19.80;75.40
4245;DHT22;2136;48.502;9.194;2022-08-01T05:06:29;19.80;75.70
4245;DHT22;2136;48.502;9.194;2022-08-01T05:08:56;19.80;76.10
4245;DHT22;2136;48.502;9.194;2022-08-01T05:11:23;19.80;75.80
4245;DHT22;2136;48.502;9.194;2022-08-01T05:13:50;19.80;75.80
4245;DHT22;2136;48.502;9.194;2022-08-01T05:16:17;19.80;76.10
4245;DHT22;2136;48.502;9.194;2022-08-01T05:18:46;19.80;76.10
4245;DHT22;2136;48.502;9.194;2022-08-01T05:21:12;19.90;76.60
4245;DHT22;2136;48.502;9.194;2022-08-01T05:23:39;19.90;76.20
4245;DHT22;2136;48.502;9.194;2022-08-01T05:26:06;20.00;75.80
4245;DHT22;2136;48.502;9.194;2022-08-01T05:28:33;20.00;75.40
4245;DHT22;2136;48.502;9.194;2022-08-01T05:31:00;20.10;75.10
4245;DHT22;2136;48.502;9.194;2022-08-01T05:33:27;20.20;75.30
4245;DHT22;2136;48.502;9.194;2022-08-01T05:35:55;20.20;75.00
4245;DHT22;2136;48.502;9.194;2022-08-01T05:38:22;20.30;74.00
4245;DHT22;2136;48.502;9.194;2022-08-01T05:40:48;20.30;73.40
4245;DHT22;2136;48.502;9.194;2022-08-01T05:43:15;20.40;73.00
4245;DHT22;2136;48.502;9.194;2022-08-01T05:45:42;20.40;72.70
4245;DHT22;2136;48.502;9.194;2022-08-01T05:48:10;20.50;72.90
4245;DHT22;2136;48.502;9.194;2022-08-01T05:50:36;20.60;72.70
4245;DHT22;2136;48.502;9.194;2022-08-01T05:53:05;20.60;72.90
4245;DHT22;2136;48.502;9.194;2022-08-01T05:55:31;20.70;73.60
4245;DHT22;2136;48.502;9.194;2022-08-01T05:57:58;20.80;74.10
4245;DHT22;2136;48.502;9.194;2022-08-01T06:00:25;20.90;73.30
4245;DHT22;2136;48.502;9.194;2022-08-01T06:02:52;20.90;72.20
4245;DHT22;2136;48.502;9.194;2022-08-01T06:05:19;21.00;72.30
4245;DHT22;2136;48.502;9.194;2022-08-01T06:07:46;21.00;70.90
4245;DHT22;2136;48.502;9.194;2022-08-01T06:10:14;21.00;70.60
4245;DHT22;2136;48.502;9.194;2022-08-01T06:12:41;21.00;69.80
4245;DHT22;2136;48.502;9.194;2022-08-01T06:15:08;21.00;69.60
4245;DHT22;2136;48.502;9.194;2022-08-01T06:17:35;21.00;69.60
4245;DHT22;2136;48.502;9.194;2022-08-01T06:20:03;21.00;69.70
4245;DHT22;2136;48.502;9.194;2022-08-01T06:22:30;21.00;69.80
4245;DHT22;2136;48.502;9.194;2022-08-01T06:24:57;21.00;70.20
4245;DHT22;2136;48.502;9.194;2022-08-01T06:27:25;20.90;70.40
4245;DHT22;2136;48.502;9.194;2022-08-01T06:29:52;20.90;70.70
4245;DHT22;2136;48.502;9.194;2022-08-01T06:32:20;21.00;70.70
4245;DHT22;2136;48.502;9.194;2022-08-01T06:34:48;21.00;70.70
4245;DHT22;2136;48.502;9.194;2022-08-01T06:37:15;21.00;70.90
4245;DHT22;2136;48.502;9.194;2022-08-01T06:39:42;21.00;71.00
4245;DHT22;2136;48.502;9.194;2022-08-01T06:42:09;21.10;71.20
4245;DHT22;2136;48.502;9.194;2022-08-01T06:44:37;21.20;71.40
4245;DHT22;2136;48.502;9.194;2022-08-01T06:47:04;21.20;71.50
4245;DHT22;2136;48.502;9.194;2022-08-01T06:49:30;21.40;71.40
4245;DHT22;2136;48.502;9.194;2022-08-01T06:51:57;21.50;71.20
4245;DHT22;2136;48.502;9.194;2022-08-01T06:54:24;21.70;70.90
4245;DHT22;2136;48.502;9.194;2022-08-01T06:56:51;22.00;69.60
4245;DHT22;2136;48.502;9.194;2022-08-01T06:59:18;22.20;68.50
4245;DHT22;2136;48.502;9.194;2022-08-01T07:01:46;22.50;68.20
4245;DHT22;2136;48.502;9.194;2022-08-01T07:04:13;22.60;67.70
4245;DHT22;2136;48.502;9.194;2022-08-01T07:06:39;22.80;66.90
4245;DHT22;2136;48.502;9.194;2022-08-01T07:09:06;22.90;66.10
4245;DHT22;2136;48.502;9.194;2022-08-01T07:11:33;23.00;65.80
4245;DHT22;2136;48.502;9.194;2022-08-01T07:14:00;23.10;66.50
4245;DHT22;2136;48.502;9.194;2022-08-01T07:16:28;23.10;65.20
4245;DHT22;2136;48.502;9.194;2022-08-01T07:18:56;23.20;66.00
4245;DHT22;2136;48.502;9.194;2022-08-01T07:21:24;23.30;64.70
4245;DHT22;2136;48.502;9.194;2022-08-01T07:23:51;23.30;64.00
4245;DHT22;2136;48.502;9.194;2022-08-01T07:26:18;23.40;63.70
4245;DHT22;2136;48.502;9.194;2022-08-01T07:28:45;23.50;63.20
4245;DHT22;2136;48.502;9.194;2022-08-01T07:31:12;23.50;62.90
4245;DHT22;2136;48.502;9.194;2022-08-01T07:33:39;23.50;62.90
4245;DHT22;2136;48.502;9.194;2022-08-01T07:36:07;23.60;62.90
4245;DHT22;2136;48.502;9.194;2022-08-01T07:38:34;23.60;63.60
4245;DHT22;2136;48.502;9.194;2022-08-01T07:41:00;23.70;62.70
4245;DHT22;2136;48.502;9.194;2022-08-01T07:43:27;23.80;62.70
4245;DHT22;2136;48.502;9.194;2022-08-01T07:45:54;23.90;62.80
4245;DHT22;2136;48.502;9.194;2022-08-01T07:48:21;23.90;62.50
4245;DHT22;2136;48.502;9.194;2022-08-01T07:50:49;24.10;62.30
4245;DHT22;2136;48.502;9.194;2022-08-01T07:53:17;24.10;62.20
4245;DHT22;2136;48.502;9.194;2022-08-01T07:55:44;24.20;61.90
4245;DHT22;2136;48.502;9.194;2022-08-01T07:58:11;24.30;61.70
4245;DHT22;2136;48.502;9.194;2022-08-01T08:00:38;24.40;61.30
4245;DHT22;2136;48.502;9.194;2022-08-01T08:03:05;24.50;62.20
4245;DHT22;2136;48.502;9.194;2022-08-01T08:05:32;24.60;61.50
4245;DHT22;2136;48.502;9.194;2022-08-01T08:08:00;24.70;61.40
4245;DHT22;2136;48.502;9.194;2022-08-01T08:10:28;24.80;61.10
4245;DHT22;2136;48.502;9.194;2022-08-01T08:12:55;24.80;59.90
4245;DHT22;2136;48.502;9.194;2022-08-01T08:15:22;24.90;59.90
4245;DHT22;2136;48.502;9.194;2022-08-01T08:17:49;24.90;59.20
4245;DHT22;2136;48.502;9.194;2022-08-01T08:20:16;25.00;59.20
4245;DHT22;2136;48.502;9.194;2022-08-01T08:22:43;25.10;58.80
4245;DHT22;2136;48.502;9.194;2022-08-01T08:25:10;25.20;59.30
4245;DHT22;2136;48.502;9.194;2022-08-01T08:27:38;25.30;58.20
4245;DHT22;2136;48.502;9.194;2022-08-01T08:30:06;25.50;57.80
4245;DHT22;2136;48.502;9.194;2022-08-01T08:32:34;25.50;57.50
4245;DHT22;2136;48.502;9.194;2022-08-01T08:35:01;25.70;57.00
4245;DHT22;2136;48.502;9.194;2022-08-01T08:37:28;25.70;56.40
4245;DHT22;2136;48.502;9.194;2022-08-01T08:39:54;25.80;56.10
4245;DHT22;2136;48.502;9.194;2022-08-01T08:42:22;25.90;56.10
4245;DHT22;2136;48.502;9.194;2022-08-01T08:44:50;26.00;56.20
4245;DHT22;2136;48.502;9.194;2022-08-01T08:47:20;26.10;55.80
4245;DHT22;2136;48.502;9.194;2022-08-01T08:49:49;26.20;55.60
4245;DHT22;2136;48.502;9.194;2022-08-01T08:52:17;26.30;55.40
4245;DHT22;2136;48.502;9.194;2022-08-01T08:54:45;26.50;54.90
4245;DHT22;2136;48.502;9.194;2022-08-01T08:57:14;26.60;54.70
4245;DHT22;2136;48.502;9.194;2022-08-01T08:59:43;26.80;54.70
4245;DHT22;2136;48.502;9.194;2022-08-01T09:02:12;26.90;54.00
4245;DHT22;2136;48.502;9.194;2022-08-01T09:04:39;27.00;53.90
4245;DHT22;2136;48.502;9.194;2022-08-01T09:07:07;27.20;53.90
4245;DHT22;2136;48.502;9.194;2022-08-01T09:09:35;27.30;52.90
4245;DHT22;2136;48.502;9.194;2022-08-01T09:12:03;27.50;52.80
4245;DHT22;2136;48.502;9.194;2022-08-01T09:14:30;27.70;53.00
4245;DHT22;2136;48.502;9.194;2022-08-01T09:17:01;27.90;53.20
4245;DHT22;2136;48.502;9.194;2022-08-01T09:19:36;28.30;52.90
4245;DHT22;2136;48.502;9.194;2022-08-01T09:22:06;28.60;51.80
4245;DHT22;2136;48.502;9.194;2022-08-01T09:24:34;28.70;51.50
4245;DHT22;2136;48.502;9.194;2022-08-01T09:27:15;28.90;50.90
4245;DHT22;2136;48.502;9.194;2022-08-01T09:29:42;29.20;50.80
4245;DHT22;2136;48.502;9.194;2022-08-01T09:32:10;29.40;48.60
4245;DHT22;2136;48.502;9.194;2022-08-01T09:34:38;29.40;48.20
4245;DHT22;2136;48.502;9.194;2022-08-01T09:37:05;29.60;48.50
4245;DHT22;2136;48.502;9.194;2022-08-01T09:39:34;29.80;47.90
4245;DHT22;2136;48.502;9.194;2022-08-01T09:42:18;30.20;47.70
4245;DHT22;2136;48.502;9.194;2022-08-01T09:44:46;30.60;46.20
4245;DHT22;2136;48.502;9.194;2022-08-01T09:47:13;30.80;46.40
4245;DHT22;2136;48.502;9.194;2022-08-01T09:49:43;31.40;46.00
4245;DHT22;2136;48.502;9.194;2022-08-01T09:52:12;32.20;44.50
4245;DHT22;2136;48.502;9.194;2022-08-01T09:54:40;33.30;42.40
4245;DHT22;2136;48.502;9.194;2022-08-01T09:57:09;34.60;41.40
4245;DHT22;2136;48.502;9.194;2022-08-01T09:59:38;36.10;39.20
4245;DHT22;2136;48.502;9.194;2022-08-01T10:02:08;37.50;36.90
4245;DHT22;2136;48.502;9.194;2022-08-01T10:04:36;38.50;34.90
4245;DHT22;2136;48.502;9.194;2022-08-01T10:07:07;39.70;33.80
4245;DHT22;2136;48.502;9.194;2022-08-01T10:09:35;40.80;32.50
4245;DHT22;2136;48.502;9.194;2022-08-01T10:12:04;42.10;30.80
4245;DHT22;2136;48.502;9.194;2022-08-01T10:14:31;43.80;29.80
4245;DHT22;2136;48.502;9.194;2022-08-01T10:17:00;45.30;28.70
4245;DHT22;2136;48.502;9.194;2022-08-01T10:19:28;46.90;27.60
4245;DHT22;2136;48.502;9.194;2022-08-01T10:21:56;48.30;26.00
4245;DHT22;2136;48.502;9.194;2022-08-01T10:24:28;49.80;25.30
4245;DHT22;2136;48.502;9.194;2022-08-01T10:26:58;51.20;24.40
4245;DHT22;2136;48.502;9.194;2022-08-01T10:29:31;51.80;23.50
4245;DHT22;2136;48.502;9.194;2022-08-01T10:32:01;50.40;22.30
4245;DHT22;2136;48.502;9.194;2022-08-01T10:34:29;48.10;23.10
4245;DHT22;2136;48.502;9.194;2022-08-01T10:36:57;46.50;25.00
4245;DHT22;2136;48.502;9.194;2022-08-01T10:39:25;44.80;26.10
4245;DHT22;2136;48.502;9.194;2022-08-01T10:41:54;43.20;26.60
4245;DHT22;2136;48.502;9.194;2022-08-01T10:44:22;42.70;27.80
4245;DHT22;2136;48.502;9.194;2022-08-01T10:46:52;41.70;28.00
4245;DHT22;2136;48.502;9.194;2022-08-01T10:49:22;40.40;28.80
4245;DHT22;2136;48.502;9.194;2022-08-01T10:51:51;39.00;30.00
4245;DHT22;2136;48.502;9.194;2022-08-01T10:54:17;37.80;31.10
4245;DHT22;2136;48.502;9.194;2022-08-01T10:56:47;36.70;32.70
4245;DHT22;2136;48.502;9.194;2022-08-01T10:59:19;36.40;33.90
4245;DHT22;2136;48.502;9.194;2022-08-01T11:01:56;38.20;35.90
4245;DHT22;2136;48.502;9.194;2022-08-01T11:04:34;41.70;33.10
4245;DHT22;2136;48.502;9.194;2022-08-01T11:07:08;45.30;29.70
4245;DHT22;2136;48.502;9.194;2022-08-01T11:09:40;46.90;27.10
4245;DHT22;2136;48.502;9.194;2022-08-01T11:12:10;46.20;26.10
4245;DHT22;2136;48.502;9.194;2022-08-01T11:17:57;43.80;26.80
4245;DHT22;2136;48.502;9.194;2022-08-01T11:20:25;42.20;28.10
4245;DHT22;2136;48.502;9.194;2022-08-01T11:23:28;40.80;28.70
4245;DHT22;2136;48.502;9.194;2022-08-01T11:26:13;39.50;30.00
4245;DHT22;2136;48.502;9.194;2022-08-01T11:28:44;38.30;31.10
4245;DHT22;2136;48.502;9.194;2022-08-01T11:31:31;37.30;32.20
4245;DHT22;2136;48.502;9.194;2022-08-01T11:33:59;36.40;33.40
4245;DHT22;2136;48.502;9.194;2022-08-01T11:36:27;35.80;34.40
4245;DHT22;2136;48.502;9.194;2022-08-01T11:39:14;35.20;35.40
4245;DHT22;2136;48.502;9.194;2022-08-01T11:41:42;34.50;36.40
4245;DHT22;2136;48.502;9.194;2022-08-01T11:44:12;34.00;37.40
4245;DHT22;2136;48.502;9.194;2022-08-01T11:46:50;33.60;38.00
4245;DHT22;2136;48.502;9.194;2022-08-01T11:49:45;33.30;38.70
4245;DHT22;2136;48.502;9.194;2022-08-01T11:52:14;35.10;40.00
4245;DHT22;2136;48.502;9.194;2022-08-01T11:54:44;37.50;37.70
4245;DHT22;2136;48.502;9.194;2022-08-01T11:57:13;38.10;35.00
4245;DHT22;2136;48.502;9.194;2022-08-01T11:59:43;37.70;34.00
4245;DHT22;2136;48.502;9.194;2022-08-01T12:02:19;37.00;34.10
4245;DHT22;2136;48.502;9.194;2022-08-01T12:04:49;36.30;34.60
4245;DHT22;2136;48.502;9.194;2022-08-01T12:07:16;35.50;35.00
4245;DHT22;2136;48.502;9.194;2022-08-01T12:09:44;34.80;36.50
4245;DHT22;2136;48.502;9.194;2022-08-01T12:12:15;34.20;37.20
4245;DHT22;2136;48.502;9.194;2022-08-01T12:14:45;33.40;38.10
4245;DHT22;2136;48.502;9.194;2022-08-01T12:17:12;32.90;38.90
4245;DHT22;2136;48.502;9.194;2022-08-01T12:19:40;32.40;39.60
4245;DHT22;2136;48.502;9.194;2022-08-01T12:22:13;31.90;40.70
4245;DHT22;2136;48.502;9.194;2022-08-01T12:24:41;31.50;41.60
4245;DHT22;2136;48.502;9.194;2022-08-01T12:27:09;31.10;42.20
4245;DHT22;2136;48.502;9.194;2022-08-01T12:29:37;30.90;43.40
4245;DHT22;2136;48.502;9.194;2022-08-01T12:32:21;30.70;43.70
4245;DHT22;2136;48.502;9.194;2022-08-01T12:34:49;30.70;44.10
4245;DHT22;2136;48.502;9.194;2022-08-01T12:37:17;30.80;44.40
4245;DHT22;2136;48.502;9.194;2022-08-01T12:39:44;31.00;44.80
4245;DHT22;2136;48.502;9.194;2022-08-01T12:42:12;31.40;44.80
4245;DHT22;2136;48.502;9.194;2022-08-01T12:44:40;32.30;44.40
4245;DHT22;2136;48.502;9.194;2022-08-01T12:47:10;34.20;43.20
4245;DHT22;2136;48.502;9.194;2022-08-01T12:49:38;36.80;40.10
4245;DHT22;2136;48.502;9.194;2022-08-01T12:52:07;39.00;37.90
4245;DHT22;2136;48.502;9.194;2022-08-01T12:57:44;41.70;33.00
4245;DHT22;2136;48.502;9.194;2022-08-01T13:00:23;41.90;31.20
4245;DHT22;2136;48.502;9.194;2022-08-01T13:03:01;41.90;30.20
4245;DHT22;2136;48.502;9.194;2022-08-01T13:05:28;41.40;30.20
4245;DHT22;2136;48.502;9.194;2022-08-01T13:08:09;41.00;31.00
4245;DHT22;2136;48.502;9.194;2022-08-01T13:10:36;40.80;30.70
4245;DHT22;2136;48.502;9.194;2022-08-01T13:13:03;40.20;31.20
4245;DHT22;2136;48.502;9.194;2022-08-01T13:15:32;39.60;31.90
4245;DHT22;2136;48.502;9.194;2022-08-01T13:18:21;38.70;32.40
4245;DHT22;2136;48.502;9.194;2022-08-01T13:20:48;37.90;33.70
4245;DHT22;2136;48.502;9.194;2022-08-01T13:23:17;36.90;34.00
4245;DHT22;2136;48.502;9.194;2022-08-01T13:25:48;36.30;34.50
4245;DHT22;2136;48.502;9.194;2022-08-01T13:28:17;35.60;35.90
4245;DHT22;2136;48.502;9.194;2022-08-01T13:30:59;35.20;36.60
4245;DHT22;2136;48.502;9.194;2022-08-01T13:33:40;34.80;37.30
4245;DHT22;2136;48.502;9.194;2022-08-01T13:36:07;34.30;37.80
4245;DHT22;2136;48.502;9.194;2022-08-01T13:38:34;33.90;38.70
4245;DHT22;2136;48.502;9.194;2022-08-01T13:41:18;33.50;38.90
4245;DHT22;2136;48.502;9.194;2022-08-01T13:43:45;33.30;39.30
4245;DHT22;2136;48.502;9.194;2022-08-01T13:46:12;33.40;39.50
4245;DHT22;2136;48.502;9.194;2022-08-01T13:48:40;34.00;39.70
4245;DHT22;2136;48.502;9.194;2022-08-01T13:51:07;34.10;39.50
4245;DHT22;2136;48.502;9.194;2022-08-01T13:53:34;33.90;39.30
4245;DHT22;2136;48.502;9.194;2022-08-01T13:56:02;33.70;40.30
4245;DHT22;2136;48.502;9.194;2022-08-01T13:58:28;33.60;39.90
4245;DHT22;2136;48.502;9.194;2022-08-01T14:00:55;33.80;40.50
4245;DHT22;2136;48.502;9.194;2022-08-01T14:03:22;34.20;39.50
4245;DHT22;2136;48.502;9.194;2022-08-01T14:05:51;34.50;39.40
4245;DHT22;2136;48.502;9.194;2022-08-01T14:08:18;34.80;38.80
4245;DHT22;2136;48.502;9.194;2022-08-01T14:10:44;34.80;38.70
4245;DHT22;2136;48.502;9.194;2022-08-01T14:13:11;34.90;38.80
4245;DHT22;2136;48.502;9.194;2022-08-01T14:15:39;35.10;38.70
4245;DHT22;2136;48.502;9.194;2022-08-01T14:18:07;34.90;38.30
4245;DHT22;2136;48.502;9.194;2022-08-01T14:20:35;34.40;38.20
4245;DHT22;2136;48.502;9.194;2022-08-01T14:23:03;34.00;38.70
4245;DHT22;2136;48.502;9.194;2022-08-01T14:25:30;33.60;39.50
4245;DHT22;2136;48.502;9.194;2022-08-01T14:27:57;33.30;39.60
4245;DHT22;2136;48.502;9.194;2022-08-01T14:30:24;33.00;40.00
4245;DHT22;2136;48.502;9.194;2022-08-01T14:32:51;32.70;40.40
4245;DHT22;2136;48.502;9.194;2022-08-01T14:35:18;32.40;40.70
4245;DHT22;2136;48.502;9.194;2022-08-01T14:37:44;32.10;41.30
4245;DHT22;2136;48.502;9.194;2022-08-01T14:40:13;31.90;41.60
4245;DHT22;2136;48.502;9.194;2022-08-01T14:42:40;31.80;42.10
4245;DHT22;2136;48.502;9.194;2022-08-01T14:45:07;31.60;42.40
4245;DHT22;2136;48.502;9.194;2022-08-01T14:47:35;31.40;42.60
4245;DHT22;2136;48.502;9.194;2022-08-01T14:50:04;31.30;42.90
4245;DHT22;2136;48.502;9.194;2022-08-01T14:52:31;31.20;43.10
4245;DHT22;2136;48.502;9.194;2022-08-01T14:54:58;31.10;44.10
4245;DHT22;2136;48.502;9.194;2022-08-01T14:57:27;31.00;44.10
4245;DHT22;2136;48.502;9.194;2022-08-01T14:59:54;30.80;45.30
4245;DHT22;2136;48.502;9.194;2022-08-01T15:02:21;30.70;47.70
4245;DHT22;2136;48.502;9.194;2022-08-01T15:04:49;30.50;49.80
4245;DHT22;2136;48.502;9.194;2022-08-01T15:07:16;30.30;53.00
4245;DHT22;2136;48.502;9.194;2022-08-01T15:09:43;30.10;54.40
4245;DHT22;2136;48.502;9.194;2022-08-01T15:12:11;29.90;56.00
4245;DHT22;2136;48.502;9.194;2022-08-01T15:14:40;29.80;57.70
4245;DHT22;2136;48.502;9.194;2022-08-01T15:17:16;29.70;64.70
4245;DHT22;2136;48.502;9.194;2022-08-01T15:19:44;29.40;69.40
4245;DHT22;2136;48.502;9.194;2022-08-01T15:22:11;29.20;68.50
4245;DHT22;2136;48.502;9.194;2022-08-01T15:24:38;29.00;70.10
4245;DHT22;2136;48.502;9.194;2022-08-01T15:27:05;28.90;71.40
4245;DHT22;2136;48.502;9.194;2022-08-01T15:29:32;28.80;73.80
4245;DHT22;2136;48.502;9.194;2022-08-01T15:32:01;28.70;75.90
4245;DHT22;2136;48.502;9.194;2022-08-01T15:34:28;28.60;79.60
4245;DHT22;2136;48.502;9.194;2022-08-01T15:36:55;28.50;82.50
4245;DHT22;2136;48.502;9.194;2022-08-01T15:39:22;28.40;81.00
4245;DHT22;2136;48.502;9.194;2022-08-01T15:41:49;28.20;81.60
4245;DHT22;2136;48.502;9.194;2022-08-01T15:44:16;28.10;80.90
4245;DHT22;2136;48.502;9.194;2022-08-01T15:46:45;27.90;80.50
4245;DHT22;2136;48.502;9.194;2022-08-01T15:49:13;27.90;81.20
4245;DHT22;2136;48.502;9.194;2022-08-01T15:51:41;27.90;82.20
4245;DHT22;2136;48.502;9.194;2022-08-01T15:54:08;28.00;82.60
4245;DHT22;2136;48.502;9.194;2022-08-01T15:56:36;27.90;80.60
4245;DHT22;2136;48.502;9.194;2022-08-01T15:59:04;27.90;78.60
4245;DHT22;2136;48.502;9.194;2022-08-01T16:01:31;27.80;81.10
4245;DHT22;2136;48.502;9.194;2022-08-01T16:03:58;27.70;82.20
4245;DHT22;2136;48.502;9.194;2022-08-01T16:06:27;27.70;80.80
4245;DHT22;2136;48.502;9.194;2022-08-01T16:08:54;27.70;79.90
4245;DHT22;2136;48.502;9.194;2022-08-01T16:11:21;27.60;81.10
4245;DHT22;2136;48.502;9.194;2022-08-01T16:13:51;27.60;81.10
4245;DHT22;2136;48.502;9.194;2022-08-01T16:16:18;27.50;82.20
4245;DHT22;2136;48.502;9.194;2022-08-01T16:18:45;27.50;84.20
4245;DHT22;2136;48.502;9.194;2022-08-01T16:21:12;27.40;86.30